Time;durP1;ratioP1;P1;durP2;ratioP2;P2;SDS_P1;SDS_P2;PMS_P1;PMS_P2;Temp;Humidity;BMP_temperature;BMP_pressure;BME280_temperature;BME280_humidity;BME280_pressure;Samples;Min_cycle;Max_cycle;Signal;HPM_P1;HPM_P2
2021/12/29 00:00:14;;;;;;;16.15;4.53;;;;;;;5.28;100.00;99718.59;5066900;28;20504;-72
2021/12/29 00:02:40;;;;;;;20.30;4.20;;;;;;;5.40;100.00;99736.72;5072007;28;20036;-72
2021/12/29 00:05:06;;;;;;;32.03;4.68;;;;;;;5.41;100.00;99735.78;5062404;28;20085;-72
2021/12/29 00:07:32;;;;;;;18.58;4.78;;;;;;;5.30;100.00;99727.13;5064434;28;20028;-72
2021/12/29 00:10:00;;;;;;;14.75;4.68;;;;;;;5.28;100.00;99734.28;5074837;28;20063;-72
2021/12/29 00:12:26;;;;;;;21.30;5.22;;;;;;;5.32;100.00;99751.34;5081011;28;20020;-72
2021/12/29 00:14:56;;;;;;;27.17;5.53;;;;;;;5.31;100.00;99747.09;5075809;28;20048;-72
2021/12/29 00:17:22;;;;;;;21.83;6.38;;;;;;;5.25;100.00;99755.50;5058401;28;20030;-72
2021/12/29 00:19:48;;;;;;;21.83;5.63;;;;;;;5.23;100.00;99760.06;5060551;28;20456;-73
2021/12/29 00:22:14;;;;;;;12.57;4.78;;;;;;;5.30;100.00;99776.84;5067244;28;20123;-72
2021/12/29 00:24:40;;;;;;;11.05;5.07;;;;;;;5.22;100.00;99778.50;5075046;28;20537;-72
2021/12/29 00:27:06;;;;;;;16.70;5.70;;;;;;;5.27;100.00;99791.97;5075911;28;20071;-72
2021/12/29 00:29:32;;;;;;;29.55;6.90;;;;;;;5.23;100.00;99786.22;5067555;28;20119;-72
2021/12/29 00:31:57;;;;;;;23.92;6.00;;;;;;;5.05;100.00;99753.91;5079028;28;20115;-72
2021/12/29 00:34:23;;;;;;;14.90;5.60;;;;;;;5.19;100.00;99777.00;5074451;28;20052;-72
2021/12/29 00:36:49;;;;;;;15.15;6.00;;;;;;;5.22;100.00;99789.78;5086905;28;20056;-72
2021/12/29 00:39:14;;;;;;;14.38;5.47;;;;;;;5.22;100.00;99788.97;5075698;28;20254;-72
2021/12/29 00:41:40;;;;;;;18.20;5.60;;;;;;;5.24;100.00;99797.50;5072953;28;20024;-72
2021/12/29 00:44:07;;;;;;;16.42;5.38;;;;;;;5.23;100.00;99801.91;5072066;28;20648;-72
2021/12/29 00:46:35;;;;;;;12.48;6.25;;;;;;;5.23;100.00;99807.16;5078952;28;20024;-72
2021/12/29 00:49:01;;;;;;;33.92;6.10;;;;;;;5.07;100.00;99792.00;5071679;28;20456;-72
2021/12/29 00:51:26;;;;;;;28.13;6.40;;;;;;;5.23;100.00;99807.16;5068182;28;20029;-72
2021/12/29 00:53:52;;;;;;;11.60;5.43;;;;;;;5.23;100.00;99816.78;5073071;28;20024;-72
2021/12/29 00:56:17;;;;;;;11.63;5.40;;;;;;;5.13;100.00;99814.19;5075550;28;20531;-72
2021/12/29 00:58:44;;;;;;;8.43;4.97;;;;;;;5.19;100.00;99821.47;5054115;28;20444;-73
2021/12/29 01:01:09;;;;;;;11.65;5.30;;;;;;;5.15;100.00;99820.91;5073844;28;20064;-72
2021/12/29 01:03:36;;;;;;;9.13;4.93;;;;;;;5.19;100.00;99826.69;5077214;28;20066;-72
2021/12/29 01:06:02;;;;;;;7.65;4.45;;;;;;;5.19;100.00;99837.16;5072466;28;20484;-72
2021/12/29 01:08:27;;;;;;;8.73;4.55;;;;;;;5.18;100.00;99850.38;5072951;28;20081;-72
2021/12/29 01:10:53;;;;;;;9.50;4.38;;;;;;;5.17;100.00;99854.78;5055336;28;20036;-72
2021/12/29 01:13:28;;;;;;;12.10;4.85;;;;;;;5.17;100.00;99865.25;5076139;28;20020;-73
2021/12/29 01:16:08;;;;;;;7.18;4.93;;;;;;;5.16;100.00;99858.34;5081998;28;20118;-73
2021/12/29 01:18:38;;;;;;;9.70;5.28;;;;;;;5.16;100.00;99866.19;5072842;28;20238;-72
2021/12/29 01:21:04;;;;;;;11.23;5.13;;;;;;;5.18;100.00;99872.13;5076170;28;20500;-72
2021/12/29 01:23:30;;;;;;;10.25;4.57;;;;;;;5.17;100.00;99878.34;5075714;28;20491;-72
2021/12/29 01:25:55;;;;;;;9.88;4.20;;;;;;;5.08;100.00;99866.09;5076925;28;20086;-72
2021/12/29 01:28:21;;;;;;;6.50;4.00;;;;;;;5.18;100.00;99877.34;5043794;28;20233;-73
2021/12/29 01:30:47;;;;;;;7.45;4.15;;;;;;;5.18;100.00;99869.50;5075207;28;20446;-72
2021/12/29 01:33:12;;;;;;;9.68;4.05;;;;;;;5.13;100.00;99864.69;5073354;28;20045;-72
2021/12/29 01:35:39;;;;;;;17.52;5.20;;;;;;;5.21;100.00;99886.75;5074125;28;20035;-72
2021/12/29 01:38:07;;;;;;;11.18;4.05;;;;;;;5.12;100.00;99877.94;5072416;28;20036;-72
2021/12/29 01:40:35;;;;;;;12.38;3.92;;;;;;;5.20;100.00;99900.75;5078241;28;20517;-72
2021/12/29 01:43:02;;;;;;;10.50;3.50;;;;;;;5.13;100.00;99897.88;5073054;28;20028;-73
2021/12/29 01:45:28;;;;;;;11.10;4.07;;;;;;;5.19;100.00;99920.06;5057851;28;20023;-72
2021/12/29 01:47:53;;;;;;;13.25;4.88;;;;;;;5.18;100.00;99927.06;5071757;28;20040;-72
2021/12/29 01:50:19;;;;;;;9.75;4.50;;;;;;;5.17;100.00;99921.97;5077770;28;20051;-72
2021/12/29 01:52:53;;;;;;;11.65;4.22;;;;;;;5.18;100.00;99931.47;5073163;28;20043;-72
2021/12/29 01:55:19;;;;;;;8.40;4.00;;;;;;;5.17;100.00;99937.69;5060265;28;20024;-72
2021/12/29 01:57:45;;;;;;;12.93;5.03;;;;;;;5.15;100.00;99943.03;5077274;28;20090;-72
2021/12/29 02:00:15;;;;;;;10.95;3.88;;;;;;;5.15;100.00;99946.47;5076482;28;20084;-72
2021/12/29 02:02:40;;;;;;;8.18;3.45;;;;;;;5.13;100.00;99942.34;5060547;28;20036;-72
2021/12/29 02:05:06;;;;;;;11.35;3.75;;;;;;;5.14;100.00;99954.47;5075012;28;20024;-72
2021/12/29 02:07:32;;;;;;;11.00;3.50;;;;;;;5.15;100.00;99971.81;5084006;28;20079;-72
2021/12/29 02:09:58;;;;;;;12.55;3.75;;;;;;;5.06;100.00;99955.16;5048591;28;20028;-73
2021/12/29 02:12:23;;;;;;;12.77;3.28;;;;;;;5.16;100.00;99983.91;5061979;28;20167;-72
2021/12/29 02:14:48;;;;;;;10.25;3.47;;;;;;;5.10;100.00;99987.91;5059328;28;20449;-72
2021/12/29 02:17:14;;;;;;;10.40;3.53;;;;;;;5.17;100.00;100001.28;5076456;28;20032;-72
2021/12/29 02:19:45;;;;;;;10.13;4.15;;;;;;;5.12;100.00;99995.63;5075233;28;20387;-71
2021/12/29 02:22:42;;;;;;;11.15;4.45;;;;;;;5.11;100.00;100001.81;5079089;28;20158;-71
2021/12/29 02:27:52;;;;;;;11.50;4.18;;;;;;;5.19;100.00;100016.84;5076234;28;20032;-71
2021/12/29 02:30:23;;;;;;;15.77;5.53;;;;;;;5.20;100.00;100021.91;5078875;28;20023;-71
2021/12/29 02:32:49;;;;;;;17.45;6.70;;;;;;;5.20;100.00;100021.91;5073740;28;20023;-71
2021/12/29 02:35:16;;;;;;;32.05;6.90;;;;;;;5.22;100.00;100020.00;5056576;28;20036;-71
2021/12/29 02:37:43;;;;;;;20.08;7.43;;;;;;;5.24;100.00;100017.25;5060592;28;20244;-71
2021/12/29 02:40:09;;;;;;;19.60;6.05;;;;;;;5.24;100.00;100025.91;5064545;28;20035;-71
2021/12/29 02:42:42;;;;;;;23.58;8.10;;;;;;;5.26;100.00;100026.63;5074702;28;20040;-71
2021/12/29 02:45:14;;;;;;;15.65;6.80;;;;;;;5.27;100.00;100030.91;5081414;28;20087;-71
2021/12/29 02:47:40;;;;;;;27.45;8.50;;;;;;;5.24;100.00;100036.38;5077198;28;20055;-71
2021/12/29 02:50:06;;;;;;;31.83;7.93;;;;;;;5.19;100.00;100030.75;5060946;28;20550;-72
2021/12/29 02:52:32;;;;;;;22.65;8.27;;;;;;;5.17;100.00;100026.63;5079828;28;20381;-72
2021/12/29 02:54:57;;;;;;;24.60;7.55;;;;;;;5.28;100.00;100040.38;5077816;28;20036;-72
2021/12/29 02:57:23;;;;;;;24.48;8.40;;;;;;;5.28;100.00;100043.00;5068670;28;20449;-72
2021/12/29 02:59:48;;;;;;;20.67;7.45;;;;;;;5.29;100.00;100042.06;5061263;28;20044;-73
2021/12/29 03:02:14;;;;;;;26.02;7.32;;;;;;;5.28;100.00;100045.63;5058039;28;20208;-73
2021/12/29 03:04:39;;;;;;;22.00;7.57;;;;;;;5.22;100.00;100027.03;5044888;28;20472;-73
2021/12/29 03:07:05;;;;;;;28.17;8.30;;;;;;;5.28;100.00;100039.56;5080487;28;20060;-73
2021/12/29 03:09:30;;;;;;;25.65;7.78;;;;;;;5.30;100.00;100038.47;5077510;28;20107;-73
2021/12/29 03:11:56;;;;;;;35.88;9.00;;;;;;;5.36;100.00;100043.16;5061184;28;20050;-73
2021/12/29 03:14:22;;;;;;;48.22;8.90;;;;;;;5.30;100.00;100050.72;5078134;28;20481;-72
2021/12/29 03:16:48;;;;;;;34.53;9.30;;;;;;;5.34;100.00;100066.00;5084136;28;20023;-72
2021/12/29 03:19:14;;;;;;;29.77;7.85;;;;;;;5.33;100.00;100064.38;5080777;28;20056;-72
2021/12/29 03:21:40;;;;;;;32.45;7.38;;;;;;;5.33;100.00;100064.38;5067871;28;20437;-72
2021/12/29 03:24:08;;;;;;;36.97;9.35;;;;;;;5.33;100.00;100069.59;5073823;28;20043;-72
2021/12/29 03:26:35;;;;;;;34.20;8.23;;;;;;;5.32;100.00;100067.13;5078987;28;20055;-72
2021/12/29 03:29:00;;;;;;;24.55;7.32;;;;;;;5.34;100.00;100076.47;5055409;28;20043;-72
2021/12/29 03:31:27;;;;;;;25.60;8.15;;;;;;;5.35;100.00;100096.44;5077355;28;20115;-72
2021/12/29 03:33:53;;;;;;;19.13;6.82;;;;;;;5.38;100.00;100102.38;5073700;28;20032;-72
2021/12/29 03:36:19;;;;;;;24.95;8.13;;;;;;;5.31;100.00;100102.94;5075397;28;20031;-72
2021/12/29 03:38:46;;;;;;;20.20;7.65;;;;;;;5.34;100.00;100107.88;5067401;28;20071;-72
2021/12/29 03:41:14;;;;;;;22.38;6.65;;;;;;;5.35;100.00;100117.38;5063122;28;20107;-72
2021/12/29 03:43:42;;;;;;;24.15;7.90;;;;;;;5.33;100.00;100119.31;5062559;28;20071;-73
2021/12/29 03:46:08;;;;;;;15.27;6.22;;;;;;;5.38;100.00;100120.69;5061934;28;20028;-73
2021/12/29 03:48:36;;;;;;;16.50;6.97;;;;;;;5.40;100.00;100116.16;5075658;28;20025;-72
2021/12/29 03:51:02;;;;;;;43.08;7.82;;;;;;;5.32;100.00;100109.81;5078553;28;20020;-72
2021/12/29 03:53:28;;;;;;;22.27;6.82;;;;;;;5.40;100.00;100117.00;5075304;28;20016;-73
2021/12/29 03:55:54;;;;;;;16.70;6.00;;;;;;;5.41;100.00;100123.88;5059202;28;20037;-72
2021/12/29 03:58:22;;;;;;;23.33;7.82;;;;;;;5.42;100.00;100127.31;5074431;28;20057;-73
2021/12/29 04:00:50;;;;;;;14.60;6.25;;;;;;;5.43;100.00;100126.38;5079704;28;20035;-73
2021/12/29 04:03:15;;;;;;;22.25;7.30;;;;;;;5.29;100.00;100115.31;5073470;28;20035;-73
2021/12/29 04:05:41;;;;;;;23.75;8.30;;;;;;;5.34;100.00;100115.72;5075460;28;20415;-73
2021/12/29 04:08:06;;;;;;;18.48;6.57;;;;;;;5.46;100.00;100136.53;5079814;28;20035;-73
2021/12/29 04:10:33;;;;;;;19.73;7.20;;;;;;;5.39;100.00;100120.56;5076057;28;20385;-73
2021/12/29 04:12:59;;;;;;;18.08;6.55;;;;;;;5.38;100.00;100112.84;5074490;28;20081;-73
2021/12/29 04:15:29;;;;;;;31.38;8.05;;;;;;;5.46;100.00;100136.53;5070963;28;20492;-72
2021/12/29 04:17:58;;;;;;;23.48;7.82;;;;;;;5.40;100.00;100129.22;5057997;28;20032;-73
2021/12/29 04:23:15;;;;;;;15.30;7.33;;;;;;;5.49;100.00;100162.47;5075130;28;20054;-73
2021/12/29 04:25:44;;;;;;;22.15;7.65;;;;;;;5.49;100.00;100157.25;5075597;28;20111;-73
2021/12/29 04:28:14;;;;;;;25.92;7.75;;;;;;;5.42;100.00;100156.09;5081069;28;20047;-73
2021/12/29 04:30:40;;;;;;;20.80;7.32;;;;;;;5.44;100.00;100160.22;5073898;28;20028;-72
2021/12/29 04:33:06;;;;;;;19.55;6.63;;;;;;;5.39;100.00;100157.19;5073503;28;20066;-72
2021/12/29 04:35:32;;;;;;;26.75;8.65;;;;;;;5.53;100.00;100190.00;5060259;28;20059;-72
2021/12/29 04:37:58;;;;;;;21.83;7.07;;;;;;;5.52;100.00;100193.59;5072925;28;20036;-72
2021/12/29 04:40:24;;;;;;;19.15;6.88;;;;;;;5.53;100.00;100200.47;5064887;28;20035;-72
2021/12/29 04:42:49;;;;;;;27.08;6.60;;;;;;;5.52;100.00;100209.31;5074480;28;20032;-72
2021/12/29 04:45:15;;;;;;;23.60;7.00;;;;;;;5.50;100.00;100206.81;5079213;28;20130;-72
2021/12/29 04:47:43;;;;;;;27.38;7.10;;;;;;;5.52;100.00;100210.13;5064651;28;20028;-72
2021/12/29 04:50:26;;;;;;;16.00;6.55;;;;;;;5.49;100.00;100191.25;5053972;28;20613;-72
2021/12/29 04:53:00;;;;;;;28.85;7.47;;;;;;;5.55;100.00;100202.03;5064507;28;20028;-72
2021/12/29 04:55:27;;;;;;;19.15;7.03;;;;;;;5.56;100.00;100211.53;5083448;28;20044;-72
2021/12/29 04:57:54;;;;;;;19.25;7.78;;;;;;;5.57;100.00;100207.09;5075492;28;20040;-73
2021/12/29 05:00:21;;;;;;;30.73;6.97;;;;;;;5.54;100.00;100207.38;5073875;28;20056;-73
2021/12/29 05:02:47;;;;;;;33.67;7.25;;;;;;;5.56;100.00;100219.38;5061590;28;20039;-73
2021/12/29 05:05:38;;;;;;;41.13;7.53;;;;;;;5.57;100.00;100220.19;5063434;28;20035;-73
2021/12/29 05:10:50;;;;;;;36.30;7.00;;;;;;;5.60;100.00;100245.31;5074857;28;20062;-72
2021/12/29 05:13:17;;;;;;;22.15;6.22;;;;;;;5.48;100.00;100226.22;5076145;28;20081;-72
2021/12/29 05:15:42;;;;;;;37.17;6.65;;;;;;;5.60;100.00;100243.50;5081827;28;20482;-72
2021/12/29 05:18:08;;;;;;;61.13;8.25;;;;;;;5.57;100.00;100247.22;5076132;28;20036;-72
2021/12/29 05:20:34;;;;;;;51.90;7.80;;;;;;;5.59;100.00;100252.31;5076246;28;20440;-72
2021/12/29 05:23:00;;;;;;;60.75;8.77;;;;;;;5.55;100.00;100245.66;5070861;28;20029;-72
2021/12/29 05:25:27;;;;;;;82.97;8.20;;;;;;;5.61;100.00;100260.84;5052804;28;20037;-72
2021/12/29 05:27:54;;;;;;;61.85;7.63;;;;;;;5.62;100.00;100262.53;5059762;28;20503;-72
2021/12/29 05:30:20;;;;;;;49.50;7.63;;;;;;;5.59;100.00;100262.78;5063761;28;20024;-72
2021/12/29 05:32:46;;;;;;;41.95;6.60;;;;;;;5.50;100.00;100259.16;5061845;28;20437;-72
2021/12/29 05:35:12;;;;;;;57.90;7.70;;;;;;;5.62;100.00;100280.84;5043745;28;20036;-72
2021/12/29 05:37:39;;;;;;;49.90;7.60;;;;;;;5.63;100.00;100279.06;5083123;28;20090;-72
2021/12/29 05:40:06;;;;;;;104.28;8.68;;;;;;;5.62;100.00;100286.09;5047142;28;20036;-73
2021/12/29 05:42:33;;;;;;;59.97;7.53;;;;;;;5.64;100.00;100292.03;5071132;28;20254;-73
2021/12/29 05:45:04;;;;;;;78.05;8.70;;;;;;;5.64;100.00;100302.50;5071326;28;20123;-72
2021/12/29 05:47:30;;;;;;;77.25;9.27;;;;;;;5.62;100.00;100298.31;5078867;28;20028;-72
2021/12/29 05:49:56;;;;;;;64.30;8.23;;;;;;;5.57;100.00;100299.56;5073771;28;20039;-72
2021/12/29 05:52:21;;;;;;;75.68;8.52;;;;;;;5.57;100.00;100298.72;5055035;28;20268;-72
2021/12/29 05:54:46;;;;;;;22.00;6.55;;;;;;;5.63;100.00;100310.47;5029821;28;20072;-72
2021/12/29 05:57:12;;;;;;;42.88;8.43;;;;;;;5.64;100.00;100312.13;5074680;28;20032;-72
2021/12/29 05:59:37;;;;;;;79.45;8.93;;;;;;;5.55;100.00;100293.63;5070813;28;20053;-73
2021/12/29 06:02:03;;;;;;;72.60;9.73;;;;;;;5.65;100.00;100306.75;5074889;28;20032;-73
2021/12/29 06:04:29;;;;;;;83.07;8.77;;;;;;;5.65;100.00;100314.59;5074128;28;20079;-73
2021/12/29 06:06:55;;;;;;;50.95;7.85;;;;;;;5.64;100.00;100320.81;5078318;28;20047;-73
2021/12/29 06:09:20;;;;;;;102.50;9.50;;;;;;;5.66;100.00;100325.91;5072460;28;20090;-73
2021/12/29 06:11:45;;;;;;;82.88;8.85;;;;;;;5.66;100.00;100332.00;5062801;28;20043;-72
2021/12/29 06:14:11;;;;;;;28.65;6.72;;;;;;;5.68;100.00;100334.47;5072040;28;20039;-72
2021/12/29 06:16:36;;;;;;;38.70;7.05;;;;;;;5.66;100.00;100334.63;5077687;28;20024;-72
2021/12/29 06:19:02;;;;;;;68.45;10.38;;;;;;;5.67;100.00;100333.63;5072595;28;20045;-72
2021/12/29 06:21:28;;;;;;;39.53;7.55;;;;;;;5.67;100.00;100332.81;5072467;28;20028;-72
2021/12/29 06:23:53;;;;;;;48.35;7.68;;;;;;;5.66;100.00;100332.00;5076987;28;20024;-72
2021/12/29 06:26:18;;;;;;;74.13;7.78;;;;;;;5.66;100.00;100334.63;5064174;28;20048;-73
2021/12/29 06:28:44;;;;;;;50.10;7.15;;;;;;;5.54;100.00;100320.75;5070138;28;20058;-72
2021/12/29 06:31:09;;;;;;;59.30;6.78;;;;;;;5.60;100.00;100337.75;5055706;28;20444;-72
2021/12/29 06:33:35;;;;;;;73.38;9.50;;;;;;;5.56;100.00;100325.88;5058299;28;20060;-72
2021/12/29 06:36:00;;;;;;;57.15;8.10;;;;;;;5.63;100.00;100341.88;5057741;28;20086;-72
2021/12/29 06:38:25;;;;;;;33.72;7.00;;;;;;;5.66;100.00;100363.41;5058653;28;20043;-73
2021/12/29 06:40:51;;;;;;;49.33;8.10;;;;;;;5.70;100.00;100375.25;5028537;28;20066;-73
2021/12/29 06:43:16;;;;;;;35.67;8.13;;;;;;;5.70;100.00;100379.66;5073510;28;20028;-73
2021/12/29 06:45:42;;;;;;;25.88;5.65;;;;;;;5.72;100.00;100383.00;5072629;28;20495;-73
2021/12/29 06:48:07;;;;;;;65.82;8.85;;;;;;;5.71;100.00;100382.16;5058412;28;20368;-73
2021/12/29 06:50:33;;;;;;;22.50;6.93;;;;;;;5.72;100.00;100388.22;5085460;28;20144;-73
2021/12/29 06:52:59;;;;;;;32.92;6.93;;;;;;;5.66;100.00;100384.34;5062678;28;20131;-72
2021/12/29 06:55:25;;;;;;;45.67;7.72;;;;;;;5.61;100.00;100376.03;5084797;28;20032;-72
2021/12/29 06:57:50;;;;;;;41.58;8.23;;;;;;;5.64;100.00;100394.13;5076181;28;20036;-72
2021/12/29 07:00:16;;;;;;;19.25;7.43;;;;;;;5.70;100.00;100406.66;5080418;28;20028;-73
2021/12/29 07:02:41;;;;;;;62.67;8.57;;;;;;;5.71;100.00;100407.53;5072821;28;20036;-72
2021/12/29 07:05:07;;;;;;;44.85;8.15;;;;;;;5.71;100.00;100405.72;5078939;28;20430;-72
2021/12/29 07:07:33;;;;;;;22.88;7.35;;;;;;;5.71;100.00;100413.59;5084324;28;20035;-72
2021/12/29 07:09:59;;;;;;;61.25;7.35;;;;;;;5.73;100.00;100410.84;5064905;28;20637;-72
2021/12/29 07:12:24;;;;;;;74.07;8.50;;;;;;;5.75;100.00;100415.00;5063306;28;20056;-72
2021/12/29 07:14:49;;;;;;;63.45;8.40;;;;;;;5.72;100.00;100409.16;5077793;28;20361;-72
2021/12/29 07:17:15;;;;;;;79.95;9.23;;;;;;;5.65;100.00;100393.16;5062233;28;20500;-72
2021/12/29 07:19:40;;;;;;;35.65;8.85;;;;;;;5.79;100.00;100420.78;5046927;28;20035;-72
2021/12/29 07:22:07;;;;;;;44.85;8.32;;;;;;;5.75;100.00;100415.00;5075187;28;20516;-73
2021/12/29 07:24:34;;;;;;;31.45;8.38;;;;;;;5.80;100.00;100421.63;5058851;28;20442;-73
2021/12/29 07:27:00;;;;;;;34.83;7.95;;;;;;;5.80;100.00;100429.50;5079840;28;20096;-73
2021/12/29 07:29:26;;;;;;;59.13;8.05;;;;;;;5.75;100.00;100425.47;5076369;28;20039;-73
2021/12/29 07:31:53;;;;;;;38.80;7.50;;;;;;;5.81;100.00;100447.66;5062754;28;20032;-72
2021/12/29 07:34:22;;;;;;;37.15;8.32;;;;;;;5.77;100.00;100441.06;5061265;28;20029;-72
2021/12/29 07:36:48;;;;;;;30.52;7.65;;;;;;;5.66;100.00;100423.63;5079397;28;20521;-72
2021/12/29 07:39:14;;;;;;;23.60;7.88;;;;;;;5.80;100.00;100447.81;5062900;28;20046;-73
2021/12/29 07:41:40;;;;;;;26.42;8.60;;;;;;;5.78;100.00;100440.09;5082376;28;20479;-73
2021/12/29 07:44:07;;;;;;;25.98;9.18;;;;;;;5.76;100.00;100437.59;5063629;28;20024;-73
2021/12/29 07:46:34;;;;;;;19.33;8.07;;;;;;;5.79;100.00;100441.72;5072039;28;20051;-73
2021/12/29 07:49:01;;;;;;;31.80;9.02;;;;;;;5.69;100.00;100430.38;5075792;28;20456;-72
2021/12/29 07:51:26;;;;;;;30.20;8.95;;;;;;;5.61;100.00;100419.72;5061946;28;20027;-72
2021/12/29 07:53:52;;;;;;;30.63;8.18;;;;;;;5.78;100.00;100459.25;5074596;28;20037;-72
2021/12/29 07:56:18;;;;;;;27.02;8.77;;;;;;;5.67;100.00;100448.84;5078885;28;20111;-72
2021/12/29 07:58:43;;;;;;;27.17;9.20;;;;;;;5.73;100.00;100445.72;5056760;28;20522;-72
2021/12/29 08:01:09;;;;;;;47.97;11.15;;;;;;;5.84;100.00;100454.47;5072544;28;20041;-72
2021/12/29 08:03:36;;;;;;;28.98;7.88;;;;;;;5.87;100.00;100460.25;5044699;28;20047;-73
2021/12/29 08:06:02;;;;;;;42.20;9.32;;;;;;;5.87;100.00;100465.50;5080334;28;20411;-73
2021/12/29 08:08:27;;;;;;;29.40;9.20;;;;;;;5.86;100.00;100457.78;5078449;28;20550;-73
2021/12/29 08:10:53;;;;;;;46.28;9.27;;;;;;;5.91;100.00;100468.69;5043009;28;20036;-72
2021/12/29 08:13:19;;;;;;;46.83;10.18;;;;;;;5.91;100.00;100473.94;5080046;28;20027;-72
2021/12/29 08:15:45;;;;;;;62.58;9.57;;;;;;;5.94;100.00;100481.53;5079520;28;20093;-72
2021/12/29 08:18:10;;;;;;;57.80;10.25;;;;;;;5.81;100.00;100462.56;5061882;28;20708;-73
2021/12/29 08:20:36;;;;;;;45.45;10.25;;;;;;;5.95;100.00;100483.22;5061541;28;20040;-73
2021/12/29 08:23:04;;;;;;;53.53;8.85;;;;;;;5.96;100.00;100485.69;5059565;28;20074;-73
2021/12/29 08:25:30;;;;;;;47.20;10.60;;;;;;;6.00;100.00;100491.53;5063111;28;20028;-72
2021/12/29 08:27:56;;;;;;;74.93;10.85;;;;;;;6.03;100.00;100491.28;5078745;28;20047;-72
2021/12/29 08:30:22;;;;;;;89.35;11.27;;;;;;;5.97;100.00;100476.91;5078095;28;20028;-72
2021/12/29 08:32:47;;;;;;;69.10;10.25;;;;;;;6.07;100.00;100487.41;5077071;28;20023;-73
2021/12/29 08:35:13;;;;;;;38.22;9.77;;;;;;;6.06;100.00;100485.78;5076318;28;20067;-74
2021/12/29 08:37:38;;;;;;;75.20;11.68;;;;;;;6.10;100.00;100487.19;5054424;28;20617;-73
2021/12/29 08:40:07;;;;;;;46.47;9.68;;;;;;;6.11;100.00;100494.06;5072650;28;20033;-73
2021/12/29 08:42:33;;;;;;;60.05;9.70;;;;;;;6.08;100.00;100493.50;5075300;28;20405;-74
2021/12/29 08:44:58;;;;;;;39.30;9.95;;;;;;;6.13;100.00;100502.63;5041700;28;20162;-74
2021/12/29 08:47:24;;;;;;;32.78;9.50;;;;;;;6.14;100.00;100512.16;5057068;28;20572;-74
2021/12/29 08:49:49;;;;;;;40.30;9.18;;;;;;;6.16;100.00;100514.63;5046983;28;20115;-73
2021/12/29 08:52:14;;;;;;;28.42;9.65;;;;;;;6.15;100.00;100516.44;5054362;28;20408;-73
2021/12/29 08:54:40;;;;;;;34.90;9.20;;;;;;;6.17;100.00;100524.16;5075176;28;20119;-73
2021/12/29 08:57:06;;;;;;;40.72;9.52;;;;;;;6.14;100.00;100517.41;5057776;28;20432;-73
2021/12/29 08:59:33;;;;;;;49.17;13.63;;;;;;;6.24;100.00;100524.47;5061733;28;20078;-73
2021/12/29 09:01:58;;;;;;;49.67;13.15;;;;;;;6.24;100.00;100514.81;5053985;28;20538;-73
2021/12/29 09:04:24;;;;;;;56.63;16.98;;;;;;;6.18;100.00;100516.19;5038263;28;20029;-73
2021/12/29 09:06:50;;;;;;;43.42;12.18;;;;;;;6.27;100.00;100518.97;5056099;28;20468;-74
2021/12/29 09:09:15;;;;;;;75.30;12.75;;;;;;;6.29;100.00;100514.44;5052707;28;20082;-74
2021/12/29 09:11:41;;;;;;;40.42;11.30;;;;;;;6.31;100.00;100509.88;5050139;28;20020;-74
2021/12/29 09:14:07;;;;;;;38.75;12.13;;;;;;;6.43;100.00;100524.56;5041713;28;20036;-74
2021/12/29 09:16:33;;;;;;;66.93;12.98;;;;;;;6.45;100.00;100519.22;5052237;28;20554;-74
2021/12/29 09:18:58;;;;;;;62.15;11.50;;;;;;;6.46;100.00;100513.81;5051781;28;20042;-74
2021/12/29 09:21:26;;;;;;;46.20;14.23;;;;;;;6.41;100.00;100505.53;5057500;28;20037;-73
2021/12/29 09:23:52;;;;;;;29.65;10.07;;;;;;;6.52;100.00;100518.53;5055566;28;20039;-73
2021/12/29 09:26:18;;;;;;;35.13;14.18;;;;;;;6.44;100.00;100505.25;5057547;28;20028;-74
2021/12/29 09:28:46;;;;;;;61.20;34.78;;;;;;;6.56;100.00;100519.13;5042007;28;20037;-74
2021/12/29 09:31:14;;;;;;;32.75;11.73;;;;;;;6.58;100.00;100520.63;5050349;28;20103;-73
2021/12/29 09:33:40;;;;;;;31.10;8.90;;;;;;;6.63;100.00;100519.41;5049216;28;20038;-74
2021/12/29 09:36:05;;;;;;;27.35;8.50;;;;;;;6.54;100.00;100511.38;5051345;28;20115;-73
2021/12/29 09:38:35;;;;;;;41.30;9.35;;;;;;;6.67;100.00;100523.44;5034377;28;20038;-74
2021/12/29 09:41:02;;;;;;;46.13;9.90;;;;;;;6.67;100.00;100528.69;5051700;28;20036;-74
2021/12/29 09:43:28;;;;;;;45.53;8.95;;;;;;;6.65;100.00;100539.28;5060159;28;20032;-74
2021/12/29 09:45:54;;;;;;;24.60;8.02;;;;;;;6.65;100.00;100535.84;5050550;28;20029;-74
2021/12/29 09:48:20;;;;;;;45.53;8.50;;;;;;;6.52;100.00;100523.78;5057432;28;20055;-74
2021/12/29 09:50:46;;;;;;;37.72;8.80;;;;;;;6.64;100.00;100536.78;5038441;28;20036;-74
2021/12/29 09:53:12;;;;;;;43.08;10.15;;;;;;;6.67;100.00;100520.81;5054059;28;20032;-74
2021/12/29 09:55:38;;;;;;;31.40;7.78;;;;;;;6.67;100.00;100505.91;5055844;28;20128;-73
2021/12/29 09:58:05;;;;;;;26.05;8.80;;;;;;;6.67;100.00;100516.38;5058391;28;20033;-73
2021/12/29 10:00:34;;;;;;;25.25;7.95;;;;;;;6.74;100.00;100511.44;5071794;28;20469;-74
2021/12/29 10:03:03;;;;;;;18.40;7.97;;;;;;;6.78;100.00;100520.72;5080594;28;20157;-74
2021/12/29 10:05:30;;;;;;;23.08;7.50;;;;;;;6.80;100.00;100519.59;5074188;28;20029;-74
2021/12/29 10:08:18;;;;;;;22.92;7.85;;;;;;;6.80;100.00;100511.75;5055660;28;21104;-73
2021/12/29 10:10:55;;;;;;;20.98;7.88;;;;;;;6.84;100.00;100517.56;5073969;28;20100;-73
2021/12/29 10:13:21;;;;;;;24.42;8.52;;;;;;;6.90;100.00;100524.91;5072787;28;20036;-73
2021/12/29 10:16:05;;;;;;;36.67;8.50;;;;;;;6.94;100.00;100520.19;5075992;28;20039;-73
2021/12/29 10:18:33;;;;;;;34.50;8.43;;;;;;;6.85;100.00;100521.81;5076857;28;20407;-75
2021/12/29 10:21:06;;;;;;;34.42;8.95;;;;;;;6.91;100.00;100531.78;5043488;28;20059;-73
2021/12/29 10:23:34;;;;;;;39.97;8.68;;;;;;;6.93;100.00;100529.03;5065208;28;20050;-73
2021/12/29 10:26:09;;;;;;;42.25;9.25;;;;;;;6.95;100.00;100530.56;5081817;28;20412;-73
2021/12/29 10:28:35;;;;;;;38.13;9.27;;;;;;;6.99;100.00;100529.34;5065323;28;20028;-73
2021/12/29 10:31:11;;;;;;;31.45;8.38;;;;;;;7.06;100.00;100526.19;5080438;28;20487;-73
2021/12/29 10:33:48;;;;;;;182.43;59.22;;;;;;;7.07;100.00;100539.13;5071633;28;20471;-73
2021/12/29 10:36:17;;;;;;;44.55;14.35;;;;;;;6.97;100.00;100514.69;5077063;28;20484;-73
2021/12/29 10:38:45;;;;;;;39.85;12.68;;;;;;;7.07;100.00;100525.19;5069873;28;20466;-73
2021/12/29 10:41:10;;;;;;;32.42;8.95;;;;;;;6.96;100.00;100519.09;5056486;28;20024;-73
2021/12/29 10:43:40;;;;;;;31.60;9.23;;;;;;;7.10;100.00;100527.53;5080575;28;20036;-73
2021/12/29 10:46:16;;;;;;;20.48;6.70;;;;;;;7.14;100.00;100519.28;5078767;28;20020;-73
2021/12/29 10:48:47;;;;;;;27.33;7.50;;;;;;;7.24;100.00;100516.66;5076404;28;20439;-73
2021/12/29 10:51:12;;;;;;;20.60;6.72;;;;;;;7.26;100.00;100527.03;5073177;28;20395;-73
2021/12/29 10:53:38;;;;;;;18.35;6.65;;;;;;;7.23;100.00;100520.25;5072793;28;20111;-73
2021/12/29 10:56:05;;;;;;;20.63;7.22;;;;;;;7.30;100.00;100538.94;5077428;28;20477;-74
2021/12/29 10:58:34;;;;;;;19.95;7.65;;;;;;;7.32;100.00;100532.56;5077240;28;20028;-73
2021/12/29 11:01:09;;;;;;;18.13;7.10;;;;;;;7.36;100.00;100523.44;5063526;28;20064;-73
2021/12/29 11:03:47;;;;;;;17.73;6.13;;;;;;;7.35;100.00;100519.16;5079770;28;20023;-73
2021/12/29 11:06:15;;;;;;;14.23;6.32;;;;;;;7.52;100.00;100524.69;5079488;28;20028;-74
2021/12/29 11:08:49;;;;;;;13.20;6.03;;;;;;;7.57;100.00;100525.09;5056114;28;20035;-72
2021/12/29 11:11:15;;;;;;;13.52;6.03;;;;;;;7.59;100.00;100531.88;5074484;28;20507;-73
2021/12/29 11:13:41;;;;;;;15.65;6.10;;;;;;;7.65;100.00;100538.38;5055649;28;20028;-73
2021/12/29 11:16:09;;;;;;;16.25;7.13;;;;;;;7.67;100.00;100535.63;5071190;28;20037;-73
2021/12/29 11:18:52;;;;;;;19.02;7.03;;;;;;;7.68;100.00;100539.91;5056981;28;20587;-72
2021/12/29 11:21:42;;;;;;;14.40;7.43;;;;;;;7.69;100.00;100545.03;5077361;28;20356;-72
2021/12/29 11:24:14;;;;;;;17.65;6.28;;;;;;;7.69;100.00;100552.06;5078400;28;20017;-72
2021/12/29 11:26:41;;;;;;;17.15;6.47;;;;;;;7.69;100.00;100545.03;5075855;28;20488;-73